Reklaw, Texas
Current Conditions -  °F | °C
As of 7:55 PM on Saturday 25 Oct 2014 (Local Time) from KJSO Reporting Station
Clear Clear  
Wind Chill: 75°   Ceiling: Unl
Heat Index: 75°   Visibility: 10mi
Dew Point: 64°   Wind: 3mph
Humidity: 68%   Direction: 190°S
Pressure: 30.11"   Gusts: NA
Location:  31.86°N, 94.98°W
Report Text: KJSO 260055Z AUTO 19003KT 10SM CLR 23/17 A3011 RMK AO2 T02400178
Loading
Personal Weather Stations






























Interactive Weather Map
Tropical Storm Tracking
New forecast layout! Learn more

10-Day Weather Forecast

Advertisements
Track Severe Weather on mobile